createdAt,value
2023-03-15T00:01:55.181Z,67.35
2023-03-15T00:05:00.614Z,65.75
2023-03-15T00:08:07.048Z,65.79
2023-03-15T00:11:15.852Z,65.73
2023-03-15T00:14:22.461Z,65.42
2023-03-15T00:17:27.858Z,64.72
2023-03-15T00:20:34.796Z,64.14
2023-03-15T00:23:40.182Z,64.34
2023-03-15T00:26:49.137Z,63.49
2023-03-15T00:29:54.561Z,62.67
2023-03-15T00:33:00.917Z,62.49
2023-03-15T00:36:10.103Z,61.78
2023-03-15T00:39:16.490Z,62.52
2023-03-15T00:42:27.775Z,62.45
2023-03-15T00:45:34.056Z,62.63
2023-03-15T00:48:39.764Z,62.03
2023-03-15T00:51:46.192Z,62.75
2023-03-15T00:54:55.773Z,62.41
2023-03-15T00:58:04.944Z,62.24
2023-03-15T01:01:12.469Z,62.68
2023-03-15T01:04:18.917Z,62.36
2023-03-15T01:07:24.415Z,62.16
2023-03-15T01:10:30.721Z,62.07
2023-03-15T01:13:39.879Z,61.75
2023-03-15T01:16:46.223Z,61.49
2023-03-15T01:19:52.448Z,61.31
2023-03-15T01:22:58.721Z,61.56
2023-03-15T01:26:05.081Z,61.84
2023-03-15T01:29:15.191Z,62.06
2023-03-15T01:32:20.931Z,61.32
2023-03-15T01:35:27.336Z,61.45
2023-03-15T01:38:33.587Z,61.14
2023-03-15T01:41:40.980Z,61.58
2023-03-15T01:45:00.209Z,61.75
2023-03-15T01:48:07.607Z,61.59
2023-03-15T01:51:24.745Z,61.28
2023-03-15T01:54:40.736Z,61.86
2023-03-15T01:57:56.219Z,61.51
2023-03-15T02:01:09.268Z,61.21
2023-03-15T02:04:28.081Z,60.96
2023-03-15T02:07:35.387Z,60.63
2023-03-15T02:10:48.281Z,60.35
2023-03-15T02:13:59.921Z,60.13
2023-03-15T02:17:08.919Z,60.41
2023-03-15T02:20:36.634Z,60.17
2023-03-15T02:23:42.226Z,60.34
2023-03-15T02:26:57.236Z,60.70
2023-03-15T02:30:09.000Z,60.96
2023-03-15T02:33:28.218Z,61.04
2023-03-15T02:36:34.413Z,61.06
2023-03-15T02:39:40.739Z,60.52
2023-03-15T02:42:46.964Z,60.69
2023-03-15T02:45:56.475Z,59.93
2023-03-15T02:49:03.804Z,59.84
2023-03-15T02:52:12.366Z,59.78
2023-03-15T02:55:19.725Z,59.78
2023-03-15T02:58:26.354Z,59.45
2023-03-15T03:01:37.350Z,58.71
2023-03-15T03:04:44.587Z,58.44
2023-03-15T03:07:51.112Z,59.00
2023-03-15T03:10:57.562Z,58.24
2023-03-15T03:14:03.366Z,58.67
2023-03-15T03:17:12.748Z,57.99
2023-03-15T03:20:19.238Z,58.58
2023-03-15T03:23:27.433Z,57.82
2023-03-15T03:26:32.927Z,58.19
2023-03-15T03:29:39.272Z,58.04
2023-03-15T03:32:47.864Z,57.98
2023-03-15T03:35:54.521Z,57.94
2023-03-15T03:39:00.234Z,58.27
2023-03-15T03:42:07.160Z,58.13
2023-03-15T03:45:13.985Z,59.20
2023-03-15T03:48:26.397Z,58.58
2023-03-15T03:51:34.164Z,59.03
2023-03-15T03:54:43.040Z,59.45
2023-03-15T03:57:48.882Z,58.65
2023-03-15T04:01:04.396Z,58.57
2023-03-15T04:04:16.321Z,59.46
2023-03-15T04:07:23.873Z,59.13
2023-03-15T04:10:30.000Z,59.10
2023-03-15T04:13:36.968Z,59.53
2023-03-15T04:16:44.719Z,58.82
2023-03-15T04:19:59.420Z,59.42
2023-03-15T04:23:09.121Z,59.07
2023-03-15T04:26:28.691Z,59.63
2023-03-15T04:29:45.021Z,58.87
2023-03-15T04:33:14.073Z,59.53
2023-03-15T04:36:48.620Z,59.64
2023-03-15T04:40:50.836Z,59.32
2023-03-15T04:44:45.793Z,58.60
2023-03-15T04:48:13.966Z,59.49
2023-03-15T04:52:03.532Z,59.64
2023-03-15T04:55:21.172Z,58.99
2023-03-15T04:58:45.122Z,58.28
2023-03-15T05:02:42.085Z,58.80
2023-03-15T05:06:08.407Z,57.79
2023-03-15T05:09:58.274Z,58.09
2023-03-15T05:13:14.933Z,57.92
2023-03-15T05:17:08.952Z,58.25
2023-03-15T05:21:10.745Z,57.71
2023-03-15T05:24:23.887Z,58.65
2023-03-15T05:28:21.434Z,58.36
2023-03-15T05:31:42.701Z,58.22
2023-03-15T05:35:10.119Z,58.17
2023-03-15T05:38:35.532Z,57.55
2023-03-15T05:42:00.643Z,57.71
2023-03-15T05:45:28.584Z,57.25
2023-03-15T05:48:54.045Z,57.48
2023-03-15T05:52:16.234Z,56.98
2023-03-15T05:55:40.381Z,57.65
2023-03-15T05:58:49.338Z,57.13
2023-03-15T06:02:56.773Z,56.92
2023-03-15T06:06:50.159Z,56.91
2023-03-15T06:09:57.213Z,56.95
2023-03-15T06:13:05.760Z,57.06
2023-03-15T06:16:11.592Z,57.09
2023-03-15T06:19:26.141Z,56.80
2023-03-15T06:22:33.361Z,56.70
2023-03-15T06:25:59.608Z,55.89
2023-03-15T06:29:07.100Z,56.68
2023-03-15T06:32:13.772Z,56.54
2023-03-15T06:35:23.461Z,56.61
2023-03-15T06:38:30.295Z,56.56
2023-03-15T06:41:35.840Z,55.75
2023-03-15T06:44:50.135Z,56.35
2023-03-15T06:47:58.394Z,56.13
2023-03-15T06:51:09.473Z,55.46
2023-03-15T06:54:19.684Z,55.08
2023-03-15T06:57:28.719Z,55.24
2023-03-15T07:00:34.164Z,54.73
2023-03-15T07:03:40.443Z,54.55
2023-03-15T07:06:48.592Z,54.54
2023-03-15T07:09:55.340Z,54.87
2023-03-15T07:13:00.968Z,54.98
2023-03-15T07:16:08.095Z,55.86
2023-03-15T07:19:13.542Z,55.25
2023-03-15T07:22:23.014Z,55.54
2023-03-15T07:25:28.604Z,54.96
2023-03-15T07:28:34.944Z,55.71
2023-03-15T07:31:40.393Z,54.69
2023-03-15T07:34:46.873Z,54.42
2023-03-15T07:37:55.125Z,54.37
2023-03-15T07:41:05.200Z,54.88
2023-03-15T07:44:11.007Z,54.14
2023-03-15T07:47:17.289Z,54.79
2023-03-15T07:50:22.932Z,54.26
2023-03-15T07:53:32.185Z,54.62
2023-03-15T07:56:38.107Z,53.82
2023-03-15T07:59:44.403Z,54.62
2023-03-15T08:02:50.558Z,54.36
2023-03-15T08:05:57.302Z,54.63
2023-03-15T08:09:06.919Z,54.29
2023-03-15T08:12:14.073Z,54.28
2023-03-15T08:15:20.178Z,54.12
2023-03-15T08:18:29.149Z,53.22
2023-03-15T08:21:34.972Z,53.14
2023-03-15T08:24:45.670Z,53.04
2023-03-15T08:27:51.406Z,53.01
2023-03-15T08:30:57.666Z,52.93
2023-03-15T08:34:04.228Z,53.09
2023-03-15T08:37:10.761Z,54.35
2023-03-15T08:40:26.908Z,54.13
2023-03-15T08:43:33.378Z,53.23
2023-03-15T08:46:39.157Z,53.16
2023-03-15T08:49:45.637Z,52.29
2023-03-15T08:52:51.138Z,52.38
2023-03-15T08:56:00.798Z,52.21
2023-03-15T08:59:06.250Z,51.31
2023-03-15T09:02:14.653Z,50.47
2023-03-15T09:05:20.726Z,50.27
2023-03-15T09:08:27.196Z,50.34
2023-03-15T09:11:35.479Z,49.83
2023-03-15T09:14:41.952Z,51.02
2023-03-15T09:17:47.823Z,50.89
2023-03-15T09:20:55.023Z,49.54
2023-03-15T09:24:01.252Z,49.62
2023-03-15T09:27:11.935Z,49.85
2023-03-15T09:30:19.049Z,47.71
2023-03-15T09:33:26.194Z,48.49
2023-03-15T09:36:31.677Z,47.16
2023-03-15T09:39:37.984Z,46.95
2023-03-15T09:43:33.325Z,47.48
2023-03-15T09:46:55.699Z,46.20
2023-03-15T09:50:10.457Z,46.30
2023-03-15T09:53:28.158Z,46.81
2023-03-15T09:56:41.218Z,46.02
2023-03-15T09:59:57.005Z,46.60
2023-03-15T10:03:07.422Z,45.97
2023-03-15T10:06:24.561Z,46.54
2023-03-15T10:09:36.116Z,45.41
2023-03-15T10:12:54.922Z,45.38
2023-03-15T10:16:26.988Z,46.08
2023-03-15T10:19:52.161Z,45.26
2023-03-15T10:23:04.442Z,45.59
2023-03-15T10:26:21.600Z,45.62
2023-03-15T10:29:31.411Z,44.10
2023-03-15T10:32:45.422Z,43.12
2023-03-15T10:35:56.123Z,43.18
2023-03-15T10:39:06.025Z,43.12
2023-03-15T10:42:28.696Z,44.15
2023-03-15T10:45:35.303Z,44.95
2023-03-15T10:48:58.570Z,45.75
2023-03-15T10:52:05.929Z,43.41
2023-03-15T10:55:18.263Z,42.91
2023-03-15T10:58:31.636Z,42.39
2023-03-15T11:01:38.607Z,43.22
2023-03-15T11:04:54.333Z,43.50
2023-03-15T11:08:02.760Z,43.94
2023-03-15T11:11:10.821Z,43.95
2023-03-15T11:14:17.248Z,43.90
2023-03-15T11:17:28.786Z,42.88
2023-03-15T11:20:43.757Z,41.59
2023-03-15T11:23:54.085Z,40.37
2023-03-15T11:27:04.616Z,40.07
2023-03-15T11:30:19.227Z,40.65
2023-03-15T11:33:46.616Z,41.16
2023-03-15T11:37:08.454Z,41.57
2023-03-15T11:40:25.100Z,41.17
2023-03-15T11:43:50.138Z,41.50
2023-03-15T11:47:06.200Z,42.20
2023-03-15T11:50:17.927Z,41.11
2023-03-15T11:53:36.405Z,40.47
2023-03-15T11:56:57.080Z,40.90
2023-03-15T12:00:56.711Z,39.53
2023-03-15T12:04:46.430Z,39.65
2023-03-15T12:08:25.371Z,40.48
2023-03-15T12:11:45.591Z,39.92
2023-03-15T12:14:51.251Z,39.30
2023-03-15T12:18:06.455Z,40.04
2023-03-15T12:21:19.859Z,42.07
2023-03-15T12:24:32.180Z,42.30
2023-03-15T12:27:43.506Z,41.69
2023-03-15T12:31:02.147Z,41.25
2023-03-15T12:34:18.181Z,39.93
2023-03-15T12:37:36.797Z,40.20
2023-03-15T12:40:55.891Z,40.54
2023-03-15T12:44:23.457Z,40.82
2023-03-15T12:47:48.261Z,41.35
2023-03-15T12:51:04.075Z,41.91
2023-03-15T12:54:19.486Z,41.52
2023-03-15T12:57:31.103Z,41.52
2023-03-15T13:00:45.688Z,42.92
2023-03-15T13:03:51.294Z,42.27
2023-03-15T13:07:26.672Z,42.83
2023-03-15T13:11:03.438Z,42.40
2023-03-15T13:14:41.831Z,43.24
2023-03-15T13:17:55.411Z,42.32
2023-03-15T13:21:20.207Z,43.71
2023-03-15T13:24:45.496Z,43.30
2023-03-15T13:28:02.566Z,42.22
2023-03-15T13:31:20.538Z,43.28
2023-03-15T13:34:31.129Z,42.88
2023-03-15T13:37:42.071Z,43.27
2023-03-15T13:40:52.494Z,42.08
2023-03-15T13:44:01.316Z,42.76
2023-03-15T13:47:07.811Z,41.71
2023-03-15T13:50:19.333Z,42.15
2023-03-15T13:53:46.554Z,42.74
2023-03-15T13:57:09.167Z,42.55
2023-03-15T14:00:23.486Z,41.89
2023-03-15T14:03:31.400Z,41.97
2023-03-15T14:06:38.206Z,41.70
2023-03-15T14:09:43.669Z,41.01
2023-03-15T14:12:54.602Z,41.29
2023-03-15T14:16:04.108Z,40.84
2023-03-15T14:19:23.467Z,41.23
2023-03-15T14:22:29.741Z,41.43
2023-03-15T14:25:39.745Z,41.34
2023-03-15T14:28:54.277Z,41.07
2023-03-15T14:32:05.721Z,40.58
2023-03-15T14:35:26.174Z,39.83
2023-03-15T14:38:42.068Z,39.96
2023-03-15T14:41:48.355Z,40.35
2023-03-15T14:44:57.752Z,39.91
2023-03-15T14:48:08.685Z,40.79
2023-03-15T14:51:20.750Z,41.31
2023-03-15T14:54:27.296Z,40.97
2023-03-15T14:57:33.574Z,39.93
2023-03-15T15:00:42.272Z,40.02
2023-03-15T15:03:58.149Z,41.32
2023-03-15T15:07:05.323Z,41.46
2023-03-15T15:10:13.311Z,40.47
2023-03-15T15:13:24.227Z,41.52
2023-03-15T15:16:33.691Z,40.47
2023-03-15T15:19:39.108Z,40.80
2023-03-15T15:22:46.375Z,40.80
2023-03-15T15:25:57.205Z,40.75
2023-03-15T15:29:03.728Z,40.97
2023-03-15T15:32:12.276Z,40.93
2023-03-15T15:35:22.613Z,41.42
2023-03-15T15:38:39.256Z,40.99
2023-03-15T15:41:45.557Z,41.67
2023-03-15T15:44:51.035Z,41.91
2023-03-15T15:48:05.978Z,41.29
2023-03-15T15:51:28.163Z,41.94
2023-03-15T15:54:35.905Z,40.60
2023-03-15T15:57:41.760Z,41.34
2023-03-15T16:00:48.103Z,41.23
2023-03-15T16:03:56.625Z,41.39
2023-03-15T16:07:07.276Z,41.70
2023-03-15T16:10:22.761Z,41.69
2023-03-15T16:13:29.309Z,42.84
2023-03-15T16:16:34.922Z,42.29
2023-03-15T16:19:44.217Z,42.69
2023-03-15T16:22:58.748Z,41.40
2023-03-15T16:26:06.449Z,42.56
2023-03-15T16:29:22.540Z,42.44
2023-03-15T16:32:43.418Z,42.19
2023-03-15T16:35:53.426Z,42.24
2023-03-15T16:38:59.805Z,42.61
2023-03-15T16:42:25.899Z,41.81
2023-03-15T16:45:50.843Z,42.08
2023-03-15T16:49:15.762Z,42.49
2023-03-15T16:52:45.111Z,42.75
2023-03-15T16:56:16.678Z,42.92
2023-03-15T16:59:23.393Z,42.00
2023-03-15T17:02:31.671Z,42.20
2023-03-15T17:05:38.327Z,42.33
2023-03-15T17:08:46.824Z,43.31
2023-03-15T17:11:56.147Z,42.87
2023-03-15T17:15:11.479Z,42.98
2023-03-15T17:18:22.608Z,43.89
2023-03-15T17:21:31.546Z,44.12
2023-03-15T17:24:38.009Z,43.31
2023-03-15T17:27:47.842Z,44.18
2023-03-15T17:31:14.047Z,43.77
2023-03-15T17:34:23.251Z,44.54
2023-03-15T17:37:38.658Z,43.12
2023-03-15T17:40:45.624Z,43.65
2023-03-15T17:43:53.900Z,44.34
2023-03-15T17:47:04.033Z,44.13
2023-03-15T17:50:13.916Z,44.39
2023-03-15T17:53:23.176Z,44.35
2023-03-15T17:56:30.487Z,44.38
2023-03-15T17:59:36.342Z,44.08
2023-03-15T18:02:55.060Z,44.52
2023-03-15T18:06:05.535Z,44.43
2023-03-15T18:09:15.609Z,43.74
2023-03-15T18:12:22.682Z,44.93
2023-03-15T18:15:29.187Z,44.08
2023-03-15T18:18:37.865Z,44.44
2023-03-15T18:21:44.549Z,44.03
2023-03-15T18:24:50.168Z,44.08
2023-03-15T18:27:57.006Z,44.33
2023-03-15T18:31:02.697Z,45.09
2023-03-15T18:34:16.717Z,44.53
2023-03-15T18:37:22.744Z,45.95
2023-03-15T18:40:32.835Z,45.76
2023-03-15T18:43:38.868Z,45.51
2023-03-15T18:46:46.233Z,45.64
2023-03-15T18:50:01.019Z,46.27
2023-03-15T18:53:11.955Z,45.41
2023-03-15T18:56:21.580Z,46.30
2023-03-15T18:59:28.157Z,46.26
2023-03-15T19:02:34.079Z,45.29
2023-03-15T19:05:43.771Z,46.70
2023-03-15T19:08:53.677Z,46.42
2023-03-15T19:12:00.320Z,45.52
2023-03-15T19:15:07.141Z,45.55
2023-03-15T19:18:13.495Z,46.25
2023-03-15T19:21:23.122Z,47.16
2023-03-15T19:24:31.652Z,47.45
2023-03-15T19:27:38.513Z,47.35
2023-03-15T19:30:45.481Z,47.12
2023-03-15T19:33:50.880Z,48.46
2023-03-15T19:37:00.490Z,47.49
2023-03-15T19:40:08.695Z,48.24
2023-03-15T19:43:15.199Z,48.58
2023-03-15T19:46:20.742Z,49.62
2023-03-15T19:49:28.013Z,49.73
2023-03-15T19:52:39.030Z,49.97
2023-03-15T19:55:50.861Z,50.37
2023-03-15T19:58:57.371Z,50.31
2023-03-15T20:02:06.152Z,50.85
2023-03-15T20:05:13.793Z,49.93
2023-03-15T20:08:27.545Z,50.37
2023-03-15T20:11:33.154Z,50.25
2023-03-15T20:14:39.854Z,50.33
2023-03-15T20:17:54.890Z,51.20
2023-03-15T20:21:01.898Z,52.10
2023-03-15T20:24:11.622Z,51.38
2023-03-15T20:27:18.029Z,52.62
2023-03-15T20:30:25.013Z,52.50
2023-03-15T20:33:31.793Z,52.38
2023-03-15T20:36:37.451Z,51.71
2023-03-15T20:39:47.244Z,52.64
2023-03-15T20:42:53.303Z,52.51
2023-03-15T20:46:01.214Z,53.04
2023-03-15T20:49:07.171Z,53.00
2023-03-15T20:52:15.278Z,52.95
2023-03-15T20:55:24.074Z,53.16
2023-03-15T20:58:31.490Z,52.80
2023-03-15T21:01:37.311Z,53.14
2023-03-15T21:04:44.859Z,53.40
2023-03-15T21:07:50.358Z,53.71
2023-03-15T21:10:59.833Z,53.31
2023-03-15T21:14:09.880Z,53.73
2023-03-15T21:17:16.359Z,54.31
2023-03-15T21:20:23.294Z,53.76
2023-03-15T21:23:33.143Z,53.64
2023-03-15T21:26:44.174Z,54.37
2023-03-15T21:29:50.506Z,54.17
2023-03-15T21:32:56.052Z,54.20
2023-03-15T21:36:03.645Z,54.39
2023-03-15T21:39:09.102Z,54.49
2023-03-15T21:42:18.574Z,54.27
2023-03-15T21:45:24.970Z,54.36
2023-03-15T21:48:32.458Z,54.62
2023-03-15T21:51:38.718Z,54.65
2023-03-15T21:54:45.213Z,54.54
2023-03-15T21:57:53.517Z,54.57
2023-03-15T22:01:01.810Z,54.67
2023-03-15T22:04:07.370Z,54.72
2023-03-15T22:07:14.538Z,54.80
2023-03-15T22:10:20.313Z,54.95
2023-03-15T22:13:30.248Z,55.12
2023-03-15T22:16:36.063Z,55.27
2023-03-15T22:19:42.400Z,55.45
2023-03-15T22:22:49.313Z,55.51
2023-03-15T22:25:57.258Z,55.60
2023-03-15T22:29:05.684Z,55.66
2023-03-15T22:32:13.399Z,55.88
2023-03-15T22:35:20.579Z,56.15
2023-03-15T22:38:29.067Z,56.29
2023-03-15T22:41:34.486Z,56.66
2023-03-15T22:44:43.620Z,56.52
2023-03-15T22:47:49.413Z,56.73
2023-03-15T22:51:02.068Z,56.68
2023-03-15T22:54:07.728Z,56.77
2023-03-15T22:57:20.725Z,56.87
2023-03-15T23:00:32.585Z,57.23
2023-03-15T23:03:38.947Z,57.46
2023-03-15T23:06:44.319Z,57.56
2023-03-15T23:09:51.728Z,57.97
2023-03-15T23:12:57.178Z,57.77
2023-03-15T23:16:06.918Z,58.48
2023-03-15T23:19:13.614Z,58.31
2023-03-15T23:22:20.150Z,58.83
2023-03-15T23:25:29.214Z,58.66
2023-03-15T23:28:36.916Z,58.99
2023-03-15T23:31:45.540Z,59.00
2023-03-15T23:34:52.180Z,59.11
2023-03-15T23:37:58.237Z,59.44
2023-03-15T23:41:05.300Z,59.50
2023-03-15T23:44:10.918Z,60.01
2023-03-15T23:47:20.618Z,60.14
2023-03-15T23:50:27.632Z,60.05
2023-03-15T23:53:35.360Z,60.91
2023-03-15T23:56:40.711Z,60.89
2023-03-15T23:59:47.386Z,60.43
